createdAt,value
2022-09-07T00:00:51.788Z,64.71
2022-09-07T00:03:19.922Z,64.76
2022-09-07T00:05:49.458Z,64.98
2022-09-07T00:08:18.688Z,64.75
2022-09-07T00:11:00.593Z,65.14
2022-09-07T00:13:30.451Z,64.84
2022-09-07T00:15:58.240Z,64.87
2022-09-07T00:18:26.067Z,64.56
2022-09-07T00:21:01.706Z,64.02
2022-09-07T00:23:30.510Z,63.95
2022-09-07T00:26:13.958Z,63.99
2022-09-07T00:28:42.271Z,64.04
2022-09-07T00:31:28.683Z,63.72
2022-09-07T00:33:59.302Z,63.46
2022-09-07T00:36:27.401Z,63.60
2022-09-07T00:38:54.878Z,63.89
2022-09-07T00:41:23.884Z,63.98
2022-09-07T00:43:59.864Z,63.81
2022-09-07T00:46:34.291Z,64.16
2022-09-07T00:49:24.242Z,63.73
2022-09-07T00:51:57.958Z,63.85
2022-09-07T00:54:34.352Z,64.31
2022-09-07T00:57:01.721Z,63.95
2022-09-07T00:59:41.902Z,64.34
2022-09-07T01:02:09.683Z,64.36
2022-09-07T01:04:37.625Z,64.26
2022-09-07T01:07:05.997Z,64.08
2022-09-07T01:09:33.669Z,63.87
2022-09-07T01:12:02.510Z,63.84
2022-09-07T01:14:33.631Z,63.96
2022-09-07T01:17:03.510Z,63.73
2022-09-07T01:19:51.834Z,63.77
2022-09-07T01:22:19.072Z,63.36
2022-09-07T01:25:04.703Z,63.17
2022-09-07T01:27:49.992Z,62.32
2022-09-07T01:30:19.709Z,62.16
2022-09-07T01:33:11.035Z,61.93
2022-09-07T01:36:06.079Z,62.03
2022-09-07T01:38:48.015Z,62.17
2022-09-07T01:41:39.056Z,61.96
2022-09-07T01:44:25.316Z,62.29
2022-09-07T01:47:04.667Z,62.57
2022-09-07T01:49:51.475Z,62.27
2022-09-07T01:52:38.513Z,62.65
2022-09-07T01:55:16.057Z,62.85
2022-09-07T01:57:49.094Z,64.40
2022-09-07T02:00:19.835Z,64.25
2022-09-07T02:03:07.985Z,64.87
2022-09-07T02:05:43.381Z,65.00
2022-09-07T02:08:15.239Z,64.75
2022-09-07T02:10:50.922Z,64.59
2022-09-07T02:13:26.952Z,65.10
2022-09-07T02:16:02.004Z,64.23
2022-09-07T02:18:35.478Z,64.88
2022-09-07T02:21:04.552Z,64.29
2022-09-07T02:23:41.553Z,64.30
2022-09-07T02:26:17.801Z,63.51
2022-09-07T02:28:45.228Z,63.81
2022-09-07T02:31:12.471Z,64.14
2022-09-07T02:33:39.871Z,64.33
2022-09-07T02:36:07.590Z,64.11
2022-09-07T02:38:35.995Z,64.51
2022-09-07T02:41:05.384Z,64.23
2022-09-07T02:43:33.491Z,63.47
2022-09-07T02:46:06.776Z,63.60
2022-09-07T02:48:57.478Z,62.88
2022-09-07T02:51:56.059Z,63.36
2022-09-07T02:54:34.166Z,62.21
2022-09-07T02:57:28.304Z,62.07
2022-09-07T03:00:07.737Z,61.79
2022-09-07T03:02:53.834Z,61.54
2022-09-07T03:05:39.209Z,61.03
2022-09-07T03:08:17.349Z,60.29
2022-09-07T03:10:45.288Z,60.63
2022-09-07T03:13:33.177Z,61.38
2022-09-07T03:16:00.410Z,61.57
2022-09-07T03:18:28.675Z,60.74
2022-09-07T03:20:56.577Z,59.68
2022-09-07T03:23:23.881Z,59.84
2022-09-07T03:25:51.181Z,60.05
2022-09-07T03:28:18.467Z,59.62
2022-09-07T03:30:47.630Z,59.59
2022-09-07T03:33:18.958Z,59.27
2022-09-07T03:35:56.692Z,59.71
2022-09-07T03:38:24.071Z,59.33
2022-09-07T03:40:59.737Z,59.76
2022-09-07T03:43:27.424Z,59.39
2022-09-07T03:46:02.335Z,59.77
2022-09-07T03:48:33.965Z,60.18
2022-09-07T03:51:07.226Z,60.31
2022-09-07T03:53:37.076Z,60.98
2022-09-07T03:56:07.471Z,61.66
2022-09-07T03:58:35.680Z,63.05
2022-09-07T04:01:11.446Z,63.79
2022-09-07T04:03:39.883Z,65.10
2022-09-07T04:06:07.385Z,67.50
2022-09-07T04:08:36.896Z,68.43
2022-09-07T04:11:06.228Z,68.84
2022-09-07T04:13:35.589Z,70.01
2022-09-07T04:16:21.576Z,70.72
2022-09-07T04:18:50.599Z,71.71
2022-09-07T04:21:23.202Z,72.57
2022-09-07T04:23:50.876Z,72.64
2022-09-07T04:26:26.952Z,72.75
2022-09-07T04:28:54.741Z,73.94
2022-09-07T04:31:22.903Z,74.80
2022-09-07T04:33:51.755Z,75.18
2022-09-07T04:36:20.484Z,75.37
2022-09-07T04:38:48.385Z,75.89
2022-09-07T04:41:18.142Z,75.68
2022-09-07T04:43:46.926Z,76.20
2022-09-07T04:46:24.856Z,76.29
2022-09-07T04:48:54.690Z,75.83
2022-09-07T04:51:23.558Z,76.05
2022-09-07T04:53:52.326Z,75.72
2022-09-07T04:56:20.830Z,75.59
2022-09-07T04:58:48.777Z,75.65
2022-09-07T05:01:20.551Z,75.36
2022-09-07T05:03:49.007Z,74.94
2022-09-07T05:06:18.363Z,74.44
2022-09-07T05:08:50.965Z,73.31
2022-09-07T05:11:21.211Z,72.83
2022-09-07T05:13:50.450Z,72.65
2022-09-07T05:16:23.639Z,71.54
2022-09-07T05:18:52.769Z,70.53
2022-09-07T05:21:25.607Z,68.38
2022-09-07T05:23:54.854Z,67.86
2022-09-07T05:26:24.622Z,66.20
2022-09-07T05:28:52.713Z,66.41
2022-09-07T05:31:22.097Z,65.66
2022-09-07T05:36:41.914Z,63.98
2022-09-07T05:39:09.604Z,61.90
2022-09-07T05:41:36.886Z,62.17
2022-09-07T05:46:52.917Z,57.48
2022-09-07T05:49:20.061Z,55.16
2022-09-07T05:51:48.579Z,55.15
2022-09-07T05:54:15.761Z,56.25
2022-09-07T05:56:44.002Z,53.10
2022-09-07T05:59:11.298Z,53.61
2022-09-07T06:01:38.674Z,50.83
2022-09-07T06:04:06.102Z,48.68
2022-09-07T06:06:38.533Z,44.89
2022-09-07T06:09:06.970Z,43.73
2022-09-07T06:11:34.136Z,42.88
2022-09-07T06:14:01.398Z,44.14
2022-09-07T06:16:29.194Z,44.61
2022-09-07T06:18:56.409Z,43.75
2022-09-07T06:21:24.359Z,43.56
2022-09-07T06:23:52.026Z,44.37
2022-09-07T06:26:19.986Z,43.90
2022-09-07T06:28:52.140Z,43.20
2022-09-07T06:31:23.471Z,43.21
2022-09-07T06:33:52.016Z,41.88
2022-09-07T06:36:21.365Z,40.76
2022-09-07T06:38:49.732Z,42.13
2022-09-07T06:44:09.357Z,43.14
2022-09-07T06:49:24.630Z,40.98
2022-09-07T06:51:52.155Z,40.59
2022-09-07T06:57:09.667Z,39.39
2022-09-07T06:59:37.718Z,40.42
2022-09-07T07:02:06.069Z,40.63
2022-09-07T07:04:39.455Z,41.48
2022-09-07T07:07:12.014Z,40.93
2022-09-07T07:09:39.379Z,42.16
2022-09-07T07:12:06.850Z,44.18
2022-09-07T07:14:37.241Z,45.56
2022-09-07T07:17:07.109Z,47.32
2022-09-07T07:19:36.758Z,49.21
2022-09-07T07:22:29.509Z,50.54
2022-09-07T07:24:51.175Z,50.90
2022-09-07T07:27:18.274Z,52.04
2022-09-07T07:29:46.328Z,52.89
2022-09-07T07:32:13.511Z,52.50
2022-09-07T07:34:40.847Z,52.87
2022-09-07T07:37:08.068Z,53.07
2022-09-07T07:42:22.646Z,55.21
2022-09-07T07:44:49.992Z,54.84
2022-09-07T07:47:37.093Z,56.18
2022-09-07T07:53:41.074Z,55.36
2022-09-07T07:55:43.613Z,54.38
2022-09-07T07:58:11.274Z,53.80
2022-09-07T08:00:53.834Z,56.13
2022-09-07T08:03:22.954Z,57.53
2022-09-07T08:05:50.062Z,59.21
2022-09-07T08:08:17.468Z,59.72
2022-09-07T08:10:46.196Z,58.54
2022-09-07T08:13:14.406Z,59.83
2022-09-07T08:15:47.737Z,59.06
2022-09-07T08:18:17.258Z,59.24
2022-09-07T08:20:44.764Z,59.68
2022-09-07T08:23:12.025Z,59.24
2022-09-07T08:25:39.637Z,59.28
2022-09-07T08:28:07.032Z,60.08
2022-09-07T08:30:34.091Z,61.19
2022-09-07T08:33:01.364Z,62.24
2022-09-07T08:35:28.445Z,63.62
2022-09-07T08:37:55.520Z,63.77
2022-09-07T08:40:22.673Z,62.96
2022-09-07T08:43:03.484Z,63.05
2022-09-07T08:45:51.929Z,63.45
2022-09-07T08:48:29.430Z,63.59
2022-09-07T08:51:10.086Z,64.10
2022-09-07T08:53:44.890Z,63.56
2022-09-07T08:56:24.491Z,65.05
2022-09-07T08:58:56.119Z,64.88
2022-09-07T09:01:36.702Z,65.63
2022-09-07T09:04:17.893Z,65.52
2022-09-07T09:06:54.355Z,64.42
2022-09-07T09:09:51.985Z,64.18
2022-09-07T09:12:40.673Z,64.20
2022-09-07T09:15:21.692Z,64.94
2022-09-07T09:18:27.297Z,66.87
2022-09-07T09:20:57.050Z,66.02
2022-09-07T09:23:40.730Z,66.32
2022-09-07T09:26:14.222Z,66.17
2022-09-07T09:28:41.869Z,65.71
2022-09-07T09:31:34.476Z,66.08
2022-09-07T09:34:14.782Z,66.14
2022-09-07T09:37:02.377Z,66.75
2022-09-07T09:39:34.682Z,66.84
2022-09-07T09:42:26.543Z,66.01
2022-09-07T09:44:54.278Z,66.78
2022-09-07T09:47:32.843Z,66.64
2022-09-07T09:50:06.923Z,65.92
2022-09-07T09:52:47.708Z,65.78
2022-09-07T09:55:35.501Z,64.94
2022-09-07T10:06:21.232Z,66.26
2022-09-07T10:09:02.618Z,67.38
2022-09-07T10:14:34.368Z,65.23
2022-09-07T10:17:10.453Z,64.42
2022-09-07T10:19:41.406Z,64.30
2022-09-07T10:22:34.746Z,63.15
2022-09-07T10:25:04.407Z,63.21
2022-09-07T10:27:38.997Z,63.45
2022-09-07T10:30:17.005Z,64.35
2022-09-07T10:33:06.744Z,64.98
2022-09-07T10:35:40.575Z,64.23
2022-09-07T10:38:19.886Z,64.10
2022-09-07T10:41:10.509Z,63.98
2022-09-07T10:43:46.353Z,64.71
2022-09-07T10:49:29.886Z,64.97
2022-09-07T10:52:18.531Z,66.01
2022-09-07T10:55:26.627Z,67.03
2022-09-07T11:01:51.426Z,67.80
2022-09-07T11:04:18.687Z,69.21
2022-09-07T11:07:03.311Z,68.41
2022-09-07T11:09:48.431Z,66.90
2022-09-07T11:12:22.057Z,67.04
2022-09-07T11:15:14.043Z,65.46
2022-09-07T11:17:52.826Z,65.71
2022-09-07T11:20:55.206Z,66.09
2022-09-07T11:23:40.314Z,65.56
2022-09-07T11:26:13.706Z,65.15
2022-09-07T11:28:46.290Z,64.71
2022-09-07T11:31:38.150Z,64.93
2022-09-07T11:34:26.372Z,64.02
2022-09-07T11:37:18.086Z,64.65
2022-09-07T11:40:12.776Z,65.32
2022-09-07T11:43:03.109Z,64.61
2022-09-07T11:45:52.118Z,64.23
2022-09-07T11:48:30.408Z,64.09
2022-09-07T11:51:21.842Z,63.97
2022-09-07T11:53:57.583Z,64.69
2022-09-07T11:56:37.166Z,65.25
2022-09-07T11:59:27.158Z,64.38
2022-09-07T12:02:36.698Z,63.95
2022-09-07T12:05:18.146Z,64.10
2022-09-07T12:07:48.270Z,65.32
2022-09-07T12:10:36.410Z,64.55
2022-09-07T12:13:40.994Z,65.21
2022-09-07T12:16:11.090Z,64.42
2022-09-07T12:19:10.371Z,64.15
2022-09-07T12:21:51.415Z,63.22
2022-09-07T12:24:33.766Z,63.89
2022-09-07T12:27:02.923Z,64.00
2022-09-07T12:29:31.626Z,65.57
2022-09-07T12:32:53.756Z,65.76
2022-09-07T12:34:58.058Z,66.37
2022-09-07T12:37:37.647Z,67.29
2022-09-07T12:40:33.446Z,67.24
2022-09-07T12:43:13.057Z,67.43
2022-09-07T12:45:40.325Z,68.23
2022-09-07T12:48:16.711Z,68.01
2022-09-07T12:51:10.438Z,68.29
2022-09-07T12:53:47.262Z,68.26
2022-09-07T12:56:29.739Z,67.98
2022-09-07T12:59:17.323Z,68.26
2022-09-07T13:02:04.146Z,68.42
2022-09-07T13:04:48.734Z,68.67
2022-09-07T13:07:36.683Z,69.80
2022-09-07T13:10:24.987Z,69.23
2022-09-07T13:12:53.385Z,68.68
2022-09-07T13:15:41.834Z,69.17
2022-09-07T13:18:29.046Z,69.83
2022-09-07T13:21:08.468Z,70.14
2022-09-07T13:23:40.727Z,69.39
2022-09-07T13:26:11.160Z,68.58
2022-09-07T13:29:02.898Z,68.76
2022-09-07T13:31:42.282Z,67.36
2022-09-07T13:34:32.556Z,67.80
2022-09-07T13:37:02.069Z,68.29
2022-09-07T13:39:32.306Z,67.29
2022-09-07T13:42:00.913Z,67.43
2022-09-07T13:44:32.603Z,67.82
2022-09-07T13:47:18.302Z,69.02
2022-09-07T13:50:13.734Z,69.41
2022-09-07T13:52:52.927Z,70.11
2022-09-07T13:55:34.260Z,69.72
2022-09-07T13:58:11.928Z,69.47
2022-09-07T14:01:10.176Z,69.54
2022-09-07T14:03:43.864Z,68.88
2022-09-07T14:06:32.315Z,68.75
2022-09-07T14:09:05.169Z,68.59
2022-09-07T14:11:52.982Z,68.66
2022-09-07T14:14:22.937Z,68.98
2022-09-07T14:17:01.841Z,69.23
2022-09-07T14:19:42.710Z,69.59
2022-09-07T14:22:19.833Z,69.40
2022-09-07T14:24:53.068Z,69.71
2022-09-07T14:27:31.787Z,69.98
2022-09-07T14:30:22.711Z,70.58
2022-09-07T14:32:52.774Z,70.51
2022-09-07T14:35:22.794Z,71.04
2022-09-07T14:37:51.035Z,70.69
2022-09-07T14:40:22.186Z,70.56
2022-09-07T14:42:51.138Z,70.25
2022-09-07T14:45:24.281Z,70.37
2022-09-07T14:47:54.164Z,70.40
2022-09-07T14:50:26.776Z,70.08
2022-09-07T14:55:44.859Z,69.96
2022-09-07T14:58:14.884Z,70.15
2022-09-07T15:00:45.967Z,69.71
2022-09-07T15:03:33.190Z,70.21
2022-09-07T15:06:02.101Z,69.27
2022-09-07T15:08:43.643Z,69.35
2022-09-07T15:11:35.400Z,68.99
2022-09-07T15:14:10.570Z,69.13
2022-09-07T15:16:44.547Z,69.25
2022-09-07T15:19:18.733Z,68.89
2022-09-07T15:21:46.058Z,68.34
2022-09-07T15:24:13.216Z,68.12
2022-09-07T15:29:32.985Z,67.42
2022-09-07T15:32:04.504Z,66.39
2022-09-07T15:34:33.208Z,66.64
2022-09-07T15:37:02.418Z,66.49
2022-09-07T15:39:31.277Z,66.84
2022-09-07T15:42:00.798Z,67.15
2022-09-07T15:44:46.493Z,66.84
2022-09-07T15:50:00.780Z,66.95
2022-09-07T15:52:28.134Z,66.60
2022-09-07T15:54:58.564Z,67.05
2022-09-07T16:00:13.474Z,67.64
2022-09-07T16:05:31.150Z,66.74
2022-09-07T16:10:53.481Z,66.68
2022-09-07T16:13:24.215Z,66.20
2022-09-07T16:15:51.909Z,65.97
2022-09-07T16:18:19.425Z,66.58
2022-09-07T16:20:47.528Z,66.68
2022-09-07T16:23:19.295Z,67.78
2022-09-07T16:26:00.712Z,67.67
2022-09-07T16:28:29.096Z,68.33
2022-09-07T16:30:56.808Z,68.03
2022-09-07T16:33:31.487Z,68.17
2022-09-07T16:36:07.346Z,68.42
2022-09-07T16:38:50.901Z,68.88
2022-09-07T16:41:29.509Z,69.62
2022-09-07T16:43:56.854Z,70.06
2022-09-07T16:46:26.935Z,70.24
2022-09-07T16:48:54.808Z,70.67
2022-09-07T16:51:23.367Z,71.16
2022-09-07T16:53:52.321Z,71.19
2022-09-07T16:56:21.871Z,71.30
2022-09-07T16:58:56.027Z,71.59
2022-09-07T17:01:28.800Z,71.75
2022-09-07T17:03:56.482Z,72.31
2022-09-07T17:06:37.745Z,72.13
2022-09-07T17:09:05.257Z,72.16
2022-09-07T17:11:34.707Z,72.37
2022-09-07T17:14:02.674Z,72.56
2022-09-07T17:16:35.466Z,72.47
2022-09-07T17:21:51.991Z,72.89
2022-09-07T17:24:19.706Z,73.24
2022-09-07T17:26:47.969Z,73.46
2022-09-07T17:29:15.513Z,73.91
2022-09-07T17:34:30.991Z,74.66
2022-09-07T17:37:00.517Z,74.80
2022-09-07T17:39:28.363Z,74.77
2022-09-07T17:41:55.550Z,74.82
2022-09-07T17:44:23.680Z,75.25
2022-09-07T17:46:52.275Z,75.18
2022-09-07T17:49:19.640Z,74.93
2022-09-07T17:51:47.089Z,74.65
2022-09-07T17:54:16.883Z,74.30
2022-09-07T17:56:44.791Z,74.44
2022-09-07T18:01:59.878Z,74.65
2022-09-07T18:04:36.354Z,74.75
2022-09-07T18:07:03.706Z,74.75
2022-09-07T18:09:30.955Z,75.03
2022-09-07T18:11:58.429Z,74.64
2022-09-07T18:14:25.716Z,74.93
2022-09-07T18:16:53.200Z,74.85
2022-09-07T18:19:20.521Z,74.73
2022-09-07T18:21:48.639Z,74.61
2022-09-07T18:24:21.970Z,74.60
2022-09-07T18:26:52.281Z,74.10
2022-09-07T18:29:29.361Z,74.40
2022-09-07T18:31:59.409Z,74.41
2022-09-07T18:34:26.644Z,73.93
2022-09-07T18:36:55.034Z,74.00
2022-09-07T18:39:23.020Z,73.89
2022-09-07T18:41:50.268Z,73.69
2022-09-07T18:47:08.897Z,73.52
2022-09-07T18:49:36.257Z,73.72
2022-09-07T18:54:52.480Z,74.37
2022-09-07T18:57:19.697Z,74.15
2022-09-07T18:59:47.083Z,74.00
2022-09-07T19:02:14.543Z,74.12
2022-09-07T19:07:30.181Z,73.35
2022-09-07T19:09:57.668Z,73.83
2022-09-07T19:12:25.141Z,73.50
2022-09-07T19:14:52.539Z,73.69
2022-09-07T19:17:20.027Z,73.60
2022-09-07T19:19:48.545Z,73.80
2022-09-07T19:22:18.886Z,73.91
2022-09-07T19:24:47.170Z,73.66
2022-09-07T19:27:14.570Z,73.89
2022-09-07T19:29:42.837Z,74.49
2022-09-07T19:32:13.487Z,73.96
2022-09-07T19:34:44.502Z,73.68
2022-09-07T19:37:15.101Z,73.89
2022-09-07T19:39:43.307Z,74.27
2022-09-07T19:42:15.497Z,74.20
2022-09-07T19:44:42.784Z,74.66
2022-09-07T19:47:10.777Z,74.68
2022-09-07T19:49:38.169Z,75.04
2022-09-07T19:52:06.270Z,75.38
2022-09-07T19:54:36.720Z,75.13
2022-09-07T19:57:10.746Z,75.07
2022-09-07T19:59:40.171Z,75.33
2022-09-07T20:02:08.740Z,75.42
2022-09-07T20:04:37.611Z,75.06
2022-09-07T20:07:12.371Z,74.77
2022-09-07T20:09:41.953Z,74.93
2022-09-07T20:12:10.532Z,74.85
2022-09-07T20:14:37.960Z,75.03
2022-09-07T20:17:05.639Z,74.82
2022-09-07T20:19:34.506Z,74.76
2022-09-07T20:22:02.008Z,75.40
2022-09-07T20:24:29.781Z,75.67
2022-09-07T20:26:57.839Z,75.95
2022-09-07T20:29:28.194Z,76.06
2022-09-07T20:32:03.125Z,76.27
2022-09-07T20:34:33.899Z,76.11
2022-09-07T20:37:02.878Z,76.00
2022-09-07T20:39:32.745Z,76.05
2022-09-07T20:42:04.457Z,75.08
2022-09-07T20:44:33.378Z,74.08
2022-09-07T20:47:03.119Z,73.09
2022-09-07T20:49:32.050Z,73.25
2022-09-07T20:51:59.336Z,73.19
2022-09-07T20:54:27.966Z,72.85
2022-09-07T20:57:02.105Z,72.80
2022-09-07T20:59:32.715Z,72.81
2022-09-07T21:02:00.381Z,72.60
2022-09-07T21:04:29.166Z,72.72
2022-09-07T21:06:56.633Z,72.68
2022-09-07T21:09:25.283Z,73.05
2022-09-07T21:11:56.757Z,72.79
2022-09-07T21:14:26.784Z,72.74
2022-09-07T21:16:54.078Z,72.61
2022-09-07T21:19:21.510Z,72.47
2022-09-07T21:21:48.643Z,72.47
2022-09-07T21:24:21.571Z,72.61
2022-09-07T21:26:50.442Z,72.42
2022-09-07T21:29:25.912Z,72.67
2022-09-07T21:31:54.835Z,72.56
2022-09-07T21:34:22.822Z,72.77
2022-09-07T21:36:51.567Z,72.94
2022-09-07T21:39:19.409Z,73.02
2022-09-07T21:41:47.971Z,72.87
2022-09-07T21:44:16.365Z,72.74
2022-09-07T21:46:44.484Z,73.23
2022-09-07T21:49:11.753Z,73.26
2022-09-07T21:51:39.089Z,73.53
2022-09-07T21:54:06.403Z,73.58
2022-09-07T21:56:33.804Z,73.60
2022-09-07T21:59:02.765Z,73.81
2022-09-07T22:01:31.711Z,73.86
2022-09-07T22:04:01.471Z,73.69
2022-09-07T22:06:30.054Z,73.59
2022-09-07T22:08:58.518Z,74.00
2022-09-07T22:11:28.244Z,74.34
2022-09-07T22:14:00.778Z,74.13
2022-09-07T22:16:28.314Z,74.33
2022-09-07T22:18:56.053Z,74.72
2022-09-07T22:21:25.239Z,74.59
2022-09-07T22:23:56.113Z,74.76
2022-09-07T22:26:26.804Z,74.98
2022-09-07T22:28:55.032Z,75.27
2022-09-07T22:31:31.859Z,75.39
2022-09-07T22:34:00.852Z,75.43
2022-09-07T22:36:34.211Z,76.11
2022-09-07T22:39:05.280Z,76.18
2022-09-07T22:41:35.125Z,76.08
2022-09-07T22:44:02.509Z,76.54
2022-09-07T22:46:31.872Z,76.51
2022-09-07T22:48:59.562Z,76.97
2022-09-07T22:51:27.728Z,76.83
2022-09-07T22:53:56.223Z,77.29
2022-09-07T22:56:26.229Z,76.92
2022-09-07T22:58:59.351Z,77.79
2022-09-07T23:01:28.124Z,77.27
2022-09-07T23:03:55.860Z,77.58
2022-09-07T23:06:27.610Z,77.63
2022-09-07T23:08:57.090Z,78.14
2022-09-07T23:11:25.399Z,77.96
2022-09-07T23:13:54.304Z,78.09
2022-09-07T23:16:22.389Z,78.05
2022-09-07T23:18:49.983Z,78.07
2022-09-07T23:21:18.014Z,78.67
2022-09-07T23:23:52.665Z,78.39
2022-09-07T23:26:21.680Z,78.43
2022-09-07T23:28:56.624Z,78.54
2022-09-07T23:31:25.317Z,78.93
2022-09-07T23:33:52.603Z,78.99
2022-09-07T23:36:20.389Z,78.42
2022-09-07T23:38:47.948Z,78.75
2022-09-07T23:41:17.529Z,78.57
2022-09-07T23:43:44.906Z,78.61
2022-09-07T23:46:13.967Z,78.71
2022-09-07T23:48:44.337Z,78.11
2022-09-07T23:51:12.637Z,78.74
2022-09-07T23:53:40.471Z,79.11
2022-09-07T23:56:08.122Z,79.11
2022-09-07T23:58:35.232Z,79.00
